METAR Data
IDs: Format: Raw Decoded Include TAF

Data at: 1201 UTC 23 Jun 2021

KRZL 231155Z AUTO 22003KT 10SM -DZ SCT038 SCT050 OVC110 16/10 A3010 RMK AO2